Accueil
METAR-TAF:

METAR-TAF

Aéroports :

Lechfeld, Allemagne

Base aérienne de Lechfeld

latitude: 48-11N, longitude: 010-52E, altitude: 555 m

Observation

Le bulletin a été fait il y a 1 heure et 3 minutes, à 09:20 UTC
Vent 18 kt de est/nord-est
Température -6°C
Humidité 79%
Pression 1016 hPa
Visibilité: 5000 m

METAR: ETSL 240920Z AUTO 06018KT 5000 // ////// M06/M09 Q1016 ///

Heure: 11:23 (10:23 UTC)

Prévision

Le bulletin a été fait il y a 23 heures et 29 minutes, à 10:54 UTC
Prévision valable du 23 à 10 UTC au 23 à 18 UTC
Vent 12 kt de nord-est avec des rafales jusqu'à 20 kt
Visibilité: 8000 m
Nuages fragmentés à une hauteur de 1500 ft
Temporairement
du 23 à 10 UTC au 23 à 12 UTC
Vent 15 kt de nord-est avec des rafales jusqu'à 25 kt
Visibilité: 1100 m
Nuages fragmentés à une hauteur de 1000 ft
Chasse-neige basse

TAF: ETSL 231054Z 2310/2318 05012G20KT 8000 NSW BKN015 TEMPO 2310/2312 05015G25KT 4000 DRSN BKN010 CANCEL 1100 BY ETGL

Observations et prévisions météorologiques de plus de 4000 aéroports (messages METAR et TAF).

Les stations disponibles sont représentées par des disques jaunes et rouges sur la carte.

Passer la souris dessus pour voir le nom de la station.

Cliquer dessus pour voir les observations et prévisions météorologiques.

Pour changer de carte: cliquez sur les boutons verts avec une croix noire pour zoomer, sur le bouton vert avec un tiret pour effectuer un zoom arrière, ou sur les flèches vertes pour les cartes adjacentes.


METAR-TAF: